Moretown, VT (05660)

18:05 EDT le 25 octobre 2014 (GMT -0400)
Stevens Brook Road | Change Station
CLOSE
Current Station
Stations météorologiques personnelles
Location: Moretown, VT
Altitude: 680 ft
Stations météo à proximité

Alt. 680 ft 44.27 °N, 72.75 °W | Updated 5 minutes ago

Couvert
Couvert
50.4 ° F
Paraît 50.4 ° F
N
0.0
Vent Variable Vent de Nord
Gusts 0.0 mph

Aujourd'hui
Haut(e) -- | Bas -- ° F
--% Risque de précip.
Hier
Haut(e) -- | Bas -- ° F
Precip. -- pouce
7:18 AM 5:50 PM
Lune montante, 4% visible
Pression 29.60 pouce
Visibilité 10.0 Miles terrestres
Nuages Peu 5000 ft
Couvert 9000 ft
Point de rosée 40 ° F
Humidité 68%
Précipitations 0.00 pouce
Profondeur de la couche neigeuse Non disponible.
UV 0 sur 12
Pollen .50 sur 12
Qualité de l'air Non disponible.
Flu Activity Non disponible.
METAR KMPV 252151Z AUTO 21006KT 10SM -RA FEW050 OVC090 12/06 A2958 RMK AO2 RAB48 SLP023 P0000 T01170056 $

More Conditions Fewer Conditions

Pression 29.60 pouce
Visibilité 10.0 Miles terrestres
Nuages Peu 5000 ft
Couvert 9000 ft
Point de rosée 40 ° F
Humidité 68%
Précipitations 0.00 pouce
Profondeur de la couche neigeuse Non disponible.
UV 0 sur 12
Pollen .50 sur 12
Qualité de l'air Non disponible.
Flu Activity Non disponible.
METAR KMPV 252151Z AUTO 21006KT 10SM -RA FEW050 OVC090 12/06 A2958 RMK AO2 RAB48 SLP023 P0000 T01170056 $

More Conditions Fewer Conditions

10-Day Weather Forecast

Almanac

Astronomie

Oct. 25, 2014 Lever Coucher
Temps réel 07:18 EDT 17:50 EDT
Crépuscule civil 06:48 EDT 18:20 EDT
Crépuscule nautique 06:15 EDT 18:54 EDT
Crépuscule astronomique 05:41 EDT 19:27 EDT
Lune 08:57 EDT 19:08 EDT
Durée de lumière visible 11h 31m
Longueur du jour
10h 32m
Tomorrow will be 2m 50s shorter.
Lune montante, 4% of the Moon is Illuminated
Aujourd'hui
Lune montante
Oct 30
Premier quartier
Nov 6
Pleine lune
Nov 14
Dernier quartier
Nov 22
Nouveau

Extrêmes aujourd'hui

State Highs State Lows

Community

WunderPhotos

Upload Photos

1,765,009 Photos téléchargées !

Nearby

Épaisseur de neige

Station Depth Altitude
Pas de nouvelles chutes de neige

Activité sismique

Ville Distance Mag. Time & Date
No recent earthquake activity has been reported nearby.
Minimum magnitude displayed is 2.5.

Températures des eaux côtières

Lieu Température
Aucun rapport de station

Stations météo à proximité